Time;durP1;ratioP1;P1;durP2;ratioP2;P2;SDS_P1;SDS_P2;PMS_P1;PMS_P2;Temp;Humidity;BMP_temperature;BMP_pressure;BME280_temperature;BME280_humidity;BME280_pressure;Samples;Min_cycle;Max_cycle;Signal;HPM_P1;HPM_P2
2022/10/09 00:00:43;;;;;;;53.45;46.15;;;16.60;99.90;;;;;;5051091;28;20101;-57
2022/10/09 00:03:09;;;;;;;50.72;45.05;;;16.60;99.90;;;;;;5051768;28;20123;-57
2022/10/09 00:05:35;;;;;;;52.78;47.45;;;16.70;99.90;;;;;;5051379;28;20112;-57
2022/10/09 00:08:01;;;;;;;51.40;46.20;;;16.70;99.90;;;;;;5048130;28;20079;-58
2022/10/09 00:10:27;;;;;;;53.08;47.47;;;16.70;99.90;;;;;;5052264;28;20112;-58
2022/10/09 00:12:52;;;;;;;51.78;46.60;;;16.60;99.90;;;;;;5050981;28;20041;-57
2022/10/09 00:15:18;;;;;;;52.80;47.53;;;16.60;99.90;;;;;;5052450;28;20037;-58
2022/10/09 00:17:44;;;;;;;55.17;49.35;;;16.60;99.90;;;;;;5051939;28;20033;-57
2022/10/09 00:20:10;;;;;;;52.78;47.08;;;16.60;99.90;;;;;;5052060;28;20488;-58
2022/10/09 00:22:36;;;;;;;53.63;48.20;;;16.60;99.90;;;;;;5034207;28;20041;-58
2022/10/09 00:25:01;;;;;;;54.30;47.03;;;16.60;99.90;;;;;;5070384;28;20040;-59
2022/10/09 00:27:27;;;;;;;53.90;46.78;;;;;;;;;;5074493;28;20045;-57
2022/10/09 00:29:53;;;;;;;54.05;48.42;;;16.50;99.90;;;;;;5069264;28;20036;-59
2022/10/09 00:32:19;;;;;;;52.28;47.03;;;16.50;99.90;;;;;;5074494;28;20367;-57
2022/10/09 00:34:48;;;;;;;55.67;47.38;;;16.40;99.90;;;;;;5074944;28;20443;-60
2022/10/09 00:37:13;;;;;;;51.92;46.47;;;16.60;99.90;;;;;;5074040;28;20099;-59
2022/10/09 00:39:39;;;;;;;53.78;48.15;;;16.60;99.90;;;;;;5074871;28;20414;-59
2022/10/09 00:42:05;;;;;;;52.22;47.08;;;16.60;99.90;;;;;;5073362;28;20041;-58
2022/10/09 00:44:53;;;;;;;53.47;48.13;;;16.60;99.90;;;;;;5073060;28;20027;-59
2022/10/09 00:47:39;;;;;;;50.80;45.97;;;16.60;99.90;;;;;;5072505;28;20045;-57
2022/10/09 00:50:25;;;;;;;51.92;46.75;;;16.60;99.90;;;;;;5069925;28;20037;-57
2022/10/09 00:52:57;;;;;;;51.80;46.47;;;16.70;99.90;;;;;;5073791;28;20074;-57
2022/10/09 00:55:24;;;;;;;52.30;46.03;;;16.70;99.90;;;;;;5072423;28;20432;-58
2022/10/09 00:57:52;;;;;;;48.65;43.42;;;16.60;99.90;;;;;;5053813;28;20052;-60
2022/10/09 01:00:18;;;;;;;49.38;44.35;;;16.70;99.90;;;;;;5073845;28;20123;-57
2022/10/09 01:02:43;;;;;;;49.33;44.33;;;16.70;99.90;;;;;;5069954;28;20115;-57
2022/10/09 01:05:10;;;;;;;50.33;45.08;;;16.80;99.90;;;;;;5073010;28;20033;-58
2022/10/09 01:07:57;;;;;;;47.85;42.88;;;16.60;99.90;;;;;;5072277;28;20028;-59
2022/10/09 01:10:30;;;;;;;47.53;42.78;;;16.70;99.90;;;;;;5073229;28;20032;-58
2022/10/09 01:13:11;;;;;;;46.10;41.22;;;16.60;99.90;;;;;;5071227;28;20028;-59
2022/10/09 01:15:57;;;;;;;46.55;42.03;;;16.70;99.90;;;;;;5071409;28;20028;-57
2022/10/09 01:18:45;;;;;;;46.60;41.80;;;16.70;99.90;;;;;;5072748;28;20067;-56
2022/10/09 01:21:18;;;;;;;46.13;41.35;;;16.70;99.90;;;;;;5068018;28;20392;-58
2022/10/09 01:23:47;;;;;;;45.58;40.78;;;16.60;99.90;;;;;;5073926;28;20024;-60
2022/10/09 01:26:15;;;;;;;46.97;41.38;;;16.70;99.90;;;;;;5073181;28;20112;-59
2022/10/09 01:28:50;;;;;;;47.78;42.83;;;16.70;99.90;;;;;;5072121;28;20040;-58
2022/10/09 01:31:16;;;;;;;45.72;40.85;;;16.70;99.90;;;;;;5067593;28;20428;-59
2022/10/09 01:33:46;;;;;;;48.63;43.63;;;16.60;99.90;;;;;;5063145;28;20063;-60
2022/10/09 01:36:13;;;;;;;48.03;43.13;;;16.60;99.90;;;;;;5069733;28;20060;-58
2022/10/09 01:38:41;;;;;;;49.85;44.85;;;16.50;99.90;;;;;;5048576;28;20115;-60
2022/10/09 01:41:08;;;;;;;49.55;44.55;;;16.50;99.90;;;;;;5070632;28;20034;-57
2022/10/09 01:43:34;;;;;;;49.75;44.35;;;16.60;99.90;;;;;;5070710;28;20025;-57
2022/10/09 01:46:33;;;;;;;50.17;42.72;;;16.60;99.90;;;;;;5062725;28;20089;-58
2022/10/09 01:49:10;;;;;;;48.25;42.50;;;16.60;99.90;;;;;;5067840;28;20392;-57
2022/10/09 01:51:48;;;;;;;46.60;41.38;;;16.60;99.90;;;;;;5071031;28;20475;-60
2022/10/09 01:54:19;;;;;;;45.53;40.60;;;16.50;99.90;;;;;;5068680;28;20032;-58
2022/10/09 01:56:48;;;;;;;45.90;40.90;;;16.50;99.90;;;;;;5072495;28;20023;-60
2022/10/09 01:59:16;;;;;;;46.60;42.00;;;16.50;99.90;;;;;;5071324;28;20072;-59
2022/10/09 02:01:43;;;;;;;45.17;40.42;;;16.50;99.90;;;;;;5065291;28;20028;-59
2022/10/09 02:04:12;;;;;;;42.47;38.30;;;16.50;99.90;;;;;;5068803;28;20024;-58
2022/10/09 02:06:39;;;;;;;43.75;39.28;;;16.40;99.90;;;;;;5066245;28;20109;-58
2022/10/09 02:09:12;;;;;;;46.05;41.15;;;;;;;;;;5066726;28;20047;-59
2022/10/09 02:11:39;;;;;;;41.25;37.25;;;;;;;;;;5070537;28;20091;-59
2022/10/09 02:14:05;;;;;;;43.15;38.65;;;;;;;;;;5070060;28;20051;-59
2022/10/09 02:16:44;;;;;;;43.50;38.97;;;16.40;99.90;;;;;;5072094;28;20028;-59
2022/10/09 02:19:18;;;;;;;41.88;37.50;;;16.30;99.90;;;;;;5071347;28;20445;-58
2022/10/09 02:21:46;;;;;;;43.60;38.92;;;16.40;99.90;;;;;;5067993;28;20443;-58
2022/10/09 02:24:17;;;;;;;46.80;39.58;;;16.40;99.90;;;;;;5063435;28;20055;-57
2022/10/09 02:26:43;;;;;;;42.58;38.00;;;16.30;99.90;;;;;;5068358;28;20377;-58
2022/10/09 02:29:09;;;;;;;43.10;38.63;;;16.30;99.90;;;;;;5070337;28;20086;-61
2022/10/09 02:31:38;;;;;;;43.60;38.90;;;16.30;99.90;;;;;;5070833;28;20036;-59
2022/10/09 02:34:07;;;;;;;47.35;39.60;;;16.30;99.90;;;;;;5068006;28;20452;-57
2022/10/09 02:36:34;;;;;;;43.30;38.92;;;16.30;99.90;;;;;;5066876;28;20036;-57
2022/10/09 02:39:00;;;;;;;43.15;38.70;;;16.30;99.90;;;;;;5071382;28;20134;-58
2022/10/09 02:41:26;;;;;;;42.00;37.50;;;16.30;99.90;;;;;;5072014;28;20033;-57
2022/10/09 04:18:21;;;;;;;42.80;38.13;;;;;;;;;;5055666;28;20063;-58
2022/10/09 04:20:55;;;;;;;45.47;40.65;;;15.50;99.90;;;;;;5063682;28;20578;-57
2022/10/09 04:23:23;;;;;;;43.60;39.00;;;15.60;99.90;;;;;;5064746;28;20039;-57
2022/10/09 04:25:53;;;;;;;44.55;39.95;;;15.50;99.90;;;;;;5057576;28;20036;-58
2022/10/09 04:28:19;;;;;;;43.83;39.45;;;15.60;99.90;;;;;;5053722;28;20067;-58
2022/10/09 04:30:45;;;;;;;44.95;40.13;;;15.70;99.90;;;;;;5019128;28;20036;-57
2022/10/09 04:33:10;;;;;;;43.38;38.97;;;15.70;99.90;;;;;;5054737;28;20504;-58
2022/10/09 04:35:41;;;;;;;44.45;39.80;;;15.70;99.90;;;;;;5053963;28;20041;-58
2022/10/09 04:38:06;;;;;;;43.22;38.78;;;15.80;99.90;;;;;;5053989;28;20032;-58
2022/10/09 04:40:32;;;;;;;43.53;39.08;;;15.70;99.90;;;;;;5055003;28;20037;-57
2022/10/09 04:42:58;;;;;;;45.22;40.35;;;15.70;99.90;;;;;;5054346;28;20021;-58
2022/10/09 04:45:24;;;;;;;46.03;41.13;;;15.70;99.90;;;;;;5054453;28;20028;-57
2022/10/09 04:47:49;;;;;;;41.67;37.35;;;15.70;99.90;;;;;;5054168;28;20033;-57
2022/10/09 04:50:15;;;;;;;46.40;40.53;;;15.50;99.90;;;;;;5053865;28;20033;-57
2022/10/09 04:52:41;;;;;;;44.22;39.63;;;15.50;99.90;;;;;;5054068;28;20025;-57
2022/10/09 04:55:07;;;;;;;42.40;38.03;;;15.60;99.90;;;;;;5052978;28;20056;-58
2022/10/09 04:57:33;;;;;;;44.42;39.80;;;15.70;99.90;;;;;;5053761;28;20082;-57
2022/10/09 04:59:58;;;;;;;42.47;37.97;;;15.70;99.90;;;;;;5053938;28;20029;-58
2022/10/09 05:02:24;;;;;;;40.60;36.58;;;15.70;99.90;;;;;;5054016;28;20036;-58
2022/10/09 05:04:50;;;;;;;39.65;35.60;;;15.80;99.90;;;;;;5053078;28;20063;-58
2022/10/09 05:07:16;;;;;;;42.03;37.67;;;15.80;99.90;;;;;;5053280;28;20087;-58
2022/10/09 05:09:41;;;;;;;42.83;38.58;;;15.90;99.90;;;;;;5053897;28;20024;-58
2022/10/09 05:12:07;;;;;;;40.08;35.97;;;15.90;99.90;;;;;;5053808;28;20053;-58
2022/10/09 05:14:33;;;;;;;41.80;37.63;;;15.80;99.90;;;;;;5053276;28;20025;-58
2022/10/09 05:17:03;;;;;;;41.83;37.03;;;15.90;99.90;;;;;;5053667;28;20078;-57
2022/10/09 05:19:32;;;;;;;40.33;36.15;;;15.90;99.90;;;;;;5053749;28;20040;-58
2022/10/09 05:21:59;;;;;;;38.38;34.28;;;15.90;99.90;;;;;;5070625;28;20029;-57
2022/10/09 05:24:25;;;;;;;37.15;33.15;;;15.80;99.90;;;;;;5072948;28;20032;-58
2022/10/09 05:26:51;;;;;;;35.67;31.95;;;15.80;99.90;;;;;;5072671;28;20039;-57
2022/10/09 05:29:17;;;;;;;36.83;33.22;;;15.80;99.90;;;;;;5073420;28;20078;-58
2022/10/09 05:31:43;;;;;;;36.40;32.60;;;15.80;99.90;;;;;;5070203;28;20174;-58
2022/10/09 05:34:09;;;;;;;34.97;31.35;;;15.70;99.90;;;;;;5066914;28;20042;-58
2022/10/09 05:36:35;;;;;;;35.47;31.77;;;15.80;99.90;;;;;;5066598;28;20564;-58
2022/10/09 05:39:01;;;;;;;32.22;29.13;;;15.90;99.90;;;;;;5072532;28;20025;-57
2022/10/09 05:41:28;;;;;;;37.00;31.17;;;16.00;99.90;;;;;;5070609;28;20514;-57
2022/10/09 05:43:54;;;;;;;31.60;28.20;;;16.00;99.90;;;;;;5073187;28;20024;-58
2022/10/09 05:46:23;;;;;;;33.50;30.10;;;16.00;99.90;;;;;;5072331;28;20091;-58
2022/10/09 05:48:57;;;;;;;34.28;30.70;;;16.10;99.90;;;;;;5073577;28;20028;-58
2022/10/09 05:51:24;;;;;;;33.78;30.42;;;16.10;99.90;;;;;;5072318;28;20063;-57
2022/10/09 05:53:50;;;;;;;31.85;28.65;;;16.10;99.90;;;;;;5072311;28;20066;-58
2022/10/09 05:56:21;;;;;;;33.42;29.83;;;16.10;99.90;;;;;;5068496;28;20108;-58
2022/10/09 05:58:55;;;;;;;33.50;30.05;;;16.20;99.90;;;;;;5070230;28;20036;-57
2022/10/09 06:01:23;;;;;;;33.17;30.00;;;16.20;99.90;;;;;;5072345;28;20025;-58
2022/10/09 06:03:50;;;;;;;33.85;30.25;;;16.20;99.90;;;;;;5073133;28;20043;-57
2022/10/09 06:06:17;;;;;;;32.53;28.83;;;16.20;99.90;;;;;;5072072;28;20503;-58
2022/10/09 06:08:42;;;;;;;31.92;28.52;;;16.20;99.90;;;;;;5072386;28;20111;-58
2022/10/09 06:11:18;;;;;;;29.38;26.40;;;16.30;99.90;;;;;;5073098;28;20095;-57
2022/10/09 06:13:44;;;;;;;30.83;27.55;;;16.50;99.90;;;;;;5072174;28;20032;-58
2022/10/09 06:16:12;;;;;;;27.10;24.42;;;16.70;99.90;;;;;;5071889;28;20042;-57
2022/10/09 06:18:42;;;;;;;29.55;26.02;;;17.10;99.90;;;;;;5071899;28;20121;-57
2022/10/09 06:21:08;;;;;;;30.90;24.42;;;17.60;99.90;;;;;;5072805;28;20024;-57
2022/10/09 06:23:34;;;;;;;25.02;22.42;;;18.20;99.90;;;;;;5072282;28;20025;-58
2022/10/09 06:26:09;;;;;;;24.02;21.73;;;18.20;99.90;;;;;;5072447;28;20035;-58
2022/10/09 06:28:35;;;;;;;25.05;22.20;;;18.50;99.90;;;;;;5072086;28;20044;-58
2022/10/09 06:31:03;;;;;;;25.50;22.92;;;18.70;99.90;;;;;;5072645;28;20025;-57
2022/10/09 06:33:34;;;;;;;29.38;24.50;;;18.50;99.90;;;;;;5072575;28;20047;-58
2022/10/09 06:36:17;;;;;;;28.10;24.23;;;18.20;99.90;;;;;;5071669;28;20021;-57
2022/10/09 06:38:44;;;;;;;26.25;23.38;;;18.00;99.90;;;;;;5064764;28;20032;-57
2022/10/09 06:41:17;;;;;;;20.45;17.98;;;18.60;99.90;;;;;;5069090;28;20029;-57
2022/10/09 06:43:50;;;;;;;20.95;18.77;;;18.70;99.90;;;;;;5061392;28;20387;-57
2022/10/09 06:46:17;;;;;;;17.58;15.73;;;18.70;99.90;;;;;;5066935;28;20533;-57
2022/10/09 06:48:42;;;;;;;17.98;16.17;;;18.10;99.90;;;;;;5052594;28;20033;-57
2022/10/09 06:51:14;;;;;;;25.80;21.38;;;17.80;99.90;;;;;;5052056;28;20147;-57
2022/10/09 06:53:42;;;;;;;25.65;22.35;;;18.00;99.90;;;;;;5051709;28;20029;-57
2022/10/09 06:56:09;;;;;;;21.95;18.90;;;18.20;99.90;;;;;;5051255;28;20037;-57
2022/10/09 06:58:36;;;;;;;20.40;18.40;;;18.70;99.90;;;;;;5052147;28;20017;-57
2022/10/09 07:01:16;;;;;;;22.13;20.08;;;19.20;99.90;;;;;;5066787;28;20052;-57
2022/10/09 07:03:45;;;;;;;20.40;18.13;;;19.40;99.90;;;;;;5068403;28;20016;-57
2022/10/09 07:06:15;;;;;;;22.90;20.50;;;19.40;99.90;;;;;;5067739;28;20028;-57
2022/10/09 07:08:43;;;;;;;20.55;18.35;;;19.70;99.90;;;;;;5071449;28;20036;-57
2022/10/09 07:11:12;;;;;;;23.13;19.27;;;19.40;99.90;;;;;;5055486;28;20025;-57
2022/10/09 07:13:39;;;;;;;22.95;20.40;;;19.00;99.90;;;;;;5052092;28;20429;-57
2022/10/09 07:16:05;;;;;;;23.58;21.38;;;18.70;99.90;;;;;;5051704;28;20021;-57
2022/10/09 07:18:33;;;;;;;27.27;21.70;;;18.60;99.90;;;;;;5054033;28;20405;-57
2022/10/09 07:21:03;;;;;;;28.40;24.67;;;18.40;99.90;;;;;;5055859;28;20060;-57
2022/10/09 07:23:30;;;;;;;28.25;24.48;;;18.30;99.90;;;;;;5060997;28;20115;-57
2022/10/09 07:25:57;;;;;;;25.30;22.70;;;18.30;99.90;;;;;;5072320;28;20040;-58
2022/10/09 07:28:24;;;;;;;26.42;23.85;;;18.30;99.90;;;;;;5017257;28;20045;-57
2022/10/09 07:30:50;;;;;;;25.98;23.15;;;18.20;99.90;;;;;;5051529;28;20033;-56
2022/10/09 07:33:16;;;;;;;26.73;21.00;;;18.40;99.90;;;;;;5050918;28;20043;-57
2022/10/09 07:35:42;;;;;;;21.80;19.60;;;;;;;;;;5053241;28;20188;-57
2022/10/09 07:38:08;;;;;;;21.27;18.42;;;;;;;;;;5055250;28;20045;-57
2022/10/09 07:40:34;;;;;;;24.98;18.00;;;;;;;;;;5053011;28;20075;-57
2022/10/09 07:43:00;;;;;;;19.77;17.65;;;;;;;;;;5052095;28;20448;-57
2022/10/09 07:45:26;;;;;;;21.05;15.93;;;;;;;;;;5052447;28;20408;-57
2022/10/09 07:47:52;;;;;;;17.15;15.23;;;;;;;;;;5051941;28;20053;-57
2022/10/09 07:50:18;;;;;;;17.83;13.70;;;19.80;99.90;;;;;;5051050;28;20075;-57
2022/10/09 07:52:44;;;;;;;17.85;15.85;;;19.00;99.90;;;;;;5051452;28;20032;-57
2022/10/09 07:55:09;;;;;;;26.63;19.15;;;18.80;99.90;;;;;;5052615;28;20068;-57
2022/10/09 07:57:35;;;;;;;20.33;17.80;;;18.90;99.90;;;;;;5054584;28;20060;-57
2022/10/09 08:00:01;;;;;;;22.83;19.42;;;19.10;99.90;;;;;;5074392;28;20126;-58
2022/10/09 08:02:26;;;;;;;18.08;15.80;;;19.00;99.90;;;;;;5070688;28;20033;-57
2022/10/09 08:04:52;;;;;;;20.40;17.00;;;19.00;99.90;;;;;;5069121;28;20064;-58
2022/10/09 08:07:18;;;;;;;17.55;14.90;;;19.30;99.90;;;;;;5068169;28;20107;-58
2022/10/09 08:09:43;;;;;;;20.65;17.63;;;19.50;99.90;;;;;;5070215;28;20418;-55
2022/10/09 08:12:09;;;;;;;16.02;14.40;;;19.70;99.90;;;;;;5073633;28;20079;-55
2022/10/09 08:14:35;;;;;;;20.05;15.40;;;19.90;99.90;;;;;;5074562;28;20024;-57
2022/10/09 08:17:00;;;;;;;17.83;15.98;;;20.30;99.90;;;;;;5073532;28;20027;-56
2022/10/09 08:19:26;;;;;;;18.00;15.45;;;21.00;99.90;;;;;;5072590;28;20614;-54
2022/10/09 08:21:52;;;;;;;24.30;18.15;;;21.10;99.90;;;;;;5072146;28;20050;-55
2022/10/09 08:24:18;;;;;;;18.52;16.35;;;21.20;99.90;;;;;;5049546;28;20033;-57
2022/10/09 08:26:44;;;;;;;19.67;16.15;;;21.20;99.90;;;;;;5072667;28;20488;-56
2022/10/09 08:29:12;;;;;;;16.02;14.20;;;21.20;99.90;;;;;;5069552;28;20170;-56
2022/10/09 08:31:38;;;;;;;20.52;16.42;;;20.90;99.90;;;;;;5072479;28;20495;-55
2022/10/09 08:34:04;;;;;;;17.98;15.88;;;20.40;99.90;;;;;;5072543;28;20114;-55
2022/10/09 08:36:30;;;;;;;20.02;17.45;;;20.70;99.90;;;;;;5054014;28;20064;-56
2022/10/09 08:38:56;;;;;;;23.92;18.90;;;20.90;99.90;;;;;;5067594;28;20074;-57
2022/10/09 08:41:31;;;;;;;19.95;15.90;;;20.90;99.90;;;;;;5073453;28;20489;-55
2022/10/09 08:44:02;;;;;;;18.65;15.75;;;;;;;;;;5068095;28;20059;-55
2022/10/09 08:46:36;;;;;;;20.77;15.23;;;21.70;99.90;;;;;;5070183;28;20053;-56
2022/10/09 08:49:03;;;;;;;17.25;15.55;;;;;;;;;;5068501;28;20024;-55
2022/10/09 08:51:32;;;;;;;17.13;14.38;;;;;;;;;;5071421;28;20369;-57
2022/10/09 08:54:33;;;;;;;14.25;12.75;;;22.60;99.90;;;;;;5062636;28;20520;-55
2022/10/09 08:57:02;;;;;;;22.85;15.52;;;22.10;99.90;;;;;;5032958;28;20063;-56
2022/10/09 08:59:27;;;;;;;17.35;14.35;;;22.60;99.90;;;;;;5034511;28;20037;-58
2022/10/09 09:02:23;;;;;;;18.08;16.17;;;22.30;99.90;;;;;;5030787;28;20176;-59
2022/10/09 09:05:03;;;;;;;19.23;14.95;;;22.40;99.90;;;;;;5033982;28;20025;-57
2022/10/09 09:07:44;;;;;;;19.15;16.70;;;22.10;99.90;;;;;;5036696;28;20037;-59
2022/10/09 09:10:42;;;;;;;18.05;16.25;;;22.00;99.90;;;;;;5042060;28;20034;-57
2022/10/09 09:13:31;;;;;;;18.00;15.68;;;22.30;99.90;;;;;;5038371;28;20049;-56
2022/10/09 09:16:08;;;;;;;18.42;15.88;;;22.30;99.90;;;;;;5037120;28;20043;-58
2022/10/09 09:18:43;;;;;;;16.90;15.20;;;22.10;99.90;;;;;;5033290;28;20052;-57
2022/10/09 09:21:36;;;;;;;18.55;16.65;;;22.30;99.90;;;;;;5044290;28;20041;-57
2022/10/09 09:24:10;;;;;;;16.73;14.90;;;22.40;99.90;;;;;;5042557;28;20394;-51
2022/10/09 09:26:37;;;;;;;17.30;15.48;;;22.60;99.90;;;;;;5041006;28;20033;-52
2022/10/09 09:29:04;;;;;;;17.90;16.00;;;22.30;99.90;;;;;;5042623;28;20041;-54
2022/10/09 09:31:35;;;;;;;15.75;13.38;;;;;;;;;;5029388;28;20033;-54
2022/10/09 09:34:21;;;;;;;17.35;15.30;;;22.20;99.90;;;;;;5039575;28;20140;-54
2022/10/09 09:36:53;;;;;;;16.85;13.43;;;22.30;99.90;;;;;;5060186;28;20028;-54
2022/10/09 09:39:22;;;;;;;16.67;15.00;;;22.20;99.90;;;;;;5070638;28;20032;-54
2022/10/09 09:41:48;;;;;;;17.15;15.00;;;22.60;99.90;;;;;;5071133;28;20115;-54
2022/10/09 09:44:15;;;;;;;18.00;14.65;;;22.30;99.90;;;;;;5071793;28;20603;-54
2022/10/09 09:46:41;;;;;;;14.90;13.40;;;;;;;;;;5036665;28;20089;-54
2022/10/09 09:49:20;;;;;;;17.15;14.63;;;22.40;99.90;;;;;;5067567;28;20487;-55
2022/10/09 09:51:48;;;;;;;16.15;14.48;;;;;;;;;;5064934;28;20432;-54
2022/10/09 09:54:34;;;;;;;17.77;14.68;;;;;;;;;;5063860;28;20119;-54
2022/10/09 09:57:00;;;;;;;16.48;14.40;;;;;;;;;;5077412;28;20036;-54
2022/10/09 09:59:36;;;;;;;15.65;13.98;;;;;;;;;;5071997;28;20099;-54
2022/10/09 10:02:05;;;;;;;18.00;14.95;;;;;;;;;;5062875;28;20381;-54
2022/10/09 10:04:32;;;;;;;15.98;14.27;;;;;;;;;;5053220;28;20507;-54
2022/10/09 10:06:58;;;;;;;17.15;14.65;;;;;;;;;;5052529;28;20072;-54
2022/10/09 10:09:24;;;;;;;15.07;13.55;;;;;;;;;;5070321;28;20036;-54
2022/10/09 10:12:13;;;;;;;16.48;14.20;;;;;;;;;;5068347;28;20059;-54
2022/10/09 10:14:48;;;;;;;14.32;12.82;;;;;;;;;;5060443;28;20170;-54
2022/10/09 10:17:22;;;;;;;16.00;14.40;;;;;;;;;;5052672;28;20089;-54
2022/10/09 10:19:49;;;;;;;15.18;13.20;;;;;;;;;;5057988;28;20117;-54
2022/10/09 10:22:23;;;;;;;13.10;11.80;;;;;;;;;;5065655;28;20025;-54
2022/10/09 10:24:50;;;;;;;17.17;13.13;;;;;;;;;;5061426;28;20040;-52
2022/10/09 10:27:30;;;;;;;14.60;12.38;;;23.80;99.90;;;;;;5059889;28;20033;-53
2022/10/09 10:30:04;;;;;;;15.02;13.43;;;23.10;99.90;;;;;;5069587;28;20028;-52
2022/10/09 10:32:34;;;;;;;14.63;12.90;;;22.90;99.90;;;;;;5050480;28;20029;-52
2022/10/09 10:35:23;;;;;;;15.00;13.50;;;23.40;99.90;;;;;;5070234;28;20028;-52
2022/10/09 10:37:53;;;;;;;18.95;15.63;;;;;;;;;;5065074;28;20064;-54
2022/10/09 10:40:32;;;;;;;14.40;12.77;;;;;;;;;;5064963;28;20027;-52
2022/10/09 10:43:09;;;;;;;14.05;11.32;;;24.80;99.90;;;;;;5071657;28;20032;-52
2022/10/09 10:45:57;;;;;;;10.48;9.38;;;24.80;99.90;;;;;;5071715;28;20605;-51
2022/10/09 10:48:42;;;;;;;15.27;13.27;;;24.40;99.90;;;;;;5072555;28;20422;-51
2022/10/09 10:51:22;;;;;;;13.73;12.43;;;24.40;99.90;;;;;;5071705;28;20024;-52
2022/10/09 10:54:25;;;;;;;20.92;13.02;;;24.90;99.90;;;;;;5071313;28;20483;-53
2022/10/09 10:57:12;;;;;;;16.52;11.80;;;25.10;99.90;;;;;;5072640;28;20031;-52
2022/10/09 10:59:46;;;;;;;13.65;11.45;;;25.50;99.90;;;;;;5071638;28;20048;-53
2022/10/09 11:02:19;;;;;;;11.88;10.75;;;25.80;99.90;;;;;;5071699;28;20021;-52
2022/10/09 11:05:10;;;;;;;13.10;10.55;;;26.00;99.90;;;;;;5072572;28;20452;-52
2022/10/09 11:07:57;;;;;;;12.40;11.05;;;25.90;99.90;;;;;;5072102;28;20077;-52
2022/10/09 11:10:28;;;;;;;11.32;9.68;;;25.50;99.90;;;;;;5071020;28;20487;-52
2022/10/09 11:13:14;;;;;;;13.60;9.85;;;;;;;;;;5072353;28;20418;-52
2022/10/09 11:16:11;;;;;;;12.70;8.07;;;26.60;99.90;;;;;;5068228;28;20488;-54
2022/10/09 11:18:48;;;;;;;12.45;9.60;;;25.90;99.90;;;;;;5048669;28;20388;-52
2022/10/09 11:21:20;;;;;;;12.05;9.45;;;25.80;99.90;;;;;;5056191;28;20104;-52
2022/10/09 11:23:58;;;;;;;9.85;8.85;;;26.40;99.90;;;;;;5052759;28;20381;-57
2022/10/09 11:26:34;;;;;;;10.98;9.00;;;26.20;99.90;;;;;;5065883;28;20107;-54
2022/10/09 11:29:07;;;;;;;11.00;9.65;;;25.70;99.90;;;;;;5068254;28;20047;-56
2022/10/09 11:31:43;;;;;;;11.55;9.18;;;25.90;99.90;;;;;;5059335;28;20439;-59
2022/10/09 11:34:15;;;;;;;12.50;9.77;;;25.30;99.90;;;;;;5065153;28;20096;-57
2022/10/09 11:36:42;;;;;;;11.13;9.20;;;25.60;99.90;;;;;;5064425;28;20053;-57
2022/10/09 11:39:29;;;;;;;12.70;9.73;;;26.30;99.90;;;;;;5071167;28;20103;-56
2022/10/09 11:41:56;;;;;;;11.20;9.02;;;26.40;99.90;;;;;;5059863;28;20056;-57
2022/10/09 11:44:25;;;;;;;13.88;9.07;;;26.70;99.90;;;;;;5051814;28;20041;-57
2022/10/09 11:46:56;;;;;;;13.75;9.65;;;26.80;99.90;;;;;;5059438;28;20541;-57
2022/10/09 11:49:35;;;;;;;12.52;9.95;;;26.30;99.90;;;;;;5070245;28;20514;-57
2022/10/09 11:52:19;;;;;;;11.57;9.02;;;26.30;99.90;;;;;;5060596;28;20025;-57
2022/10/09 11:54:45;;;;;;;12.88;9.30;;;25.30;99.90;;;;;;5056984;28;20025;-57
2022/10/09 11:57:10;;;;;;;13.25;9.18;;;25.30;99.90;;;;;;5059088;28;20078;-57
2022/10/09 11:59:40;;;;;;;14.27;8.75;;;24.80;99.90;;;;;;5064062;28;20028;-57
2022/10/09 12:02:24;;;;;;;13.32;9.02;;;24.30;99.90;;;;;;5054965;28;20434;-57
2022/10/09 12:04:51;;;;;;;12.40;8.52;;;24.00;99.90;;;;;;5058778;28;20087;-58
2022/10/09 12:07:37;;;;;;;12.77;9.10;;;24.20;99.90;;;;;;5064644;28;20478;-59
2022/10/09 12:10:29;;;;;;;9.95;8.25;;;24.20;99.90;;;;;;5066655;28;20530;-58
2022/10/09 12:13:03;;;;;;;12.15;9.35;;;24.40;99.90;;;;;;5070842;28;20107;-59
2022/10/09 12:15:54;;;;;;;12.82;9.63;;;24.80;99.90;;;;;;5070251;28;20093;-58
2022/10/09 12:18:28;;;;;;;12.40;9.45;;;24.70;99.90;;;;;;5072149;28;20048;-58
2022/10/09 12:20:56;;;;;;;13.13;8.82;;;24.10;99.90;;;;;;5065722;28;20070;-58
2022/10/09 12:23:25;;;;;;;12.02;8.57;;;23.40;99.90;;;;;;5063679;28;20016;-58
2022/10/09 12:25:53;;;;;;;13.63;10.95;;;23.10;99.90;;;;;;5063820;28;20024;-57
2022/10/09 12:28:44;;;;;;;12.68;10.55;;;22.90;99.90;;;;;;5064028;28;20024;-58
2022/10/09 12:31:21;;;;;;;13.57;10.40;;;23.00;99.90;;;;;;5064997;28;20104;-61
2022/10/09 12:33:54;;;;;;;13.60;10.20;;;22.80;99.90;;;;;;5068613;28;20043;-58
2022/10/09 12:36:28;;;;;;;12.27;11.07;;;22.70;99.90;;;;;;5068251;28;20155;-58
2022/10/09 12:38:55;;;;;;;15.93;11.15;;;22.60;99.90;;;;;;5063550;28;20048;-58
2022/10/09 12:41:23;;;;;;;11.85;9.98;;;22.70;99.90;;;;;;5066752;28;20025;-58
2022/10/09 12:43:53;;;;;;;13.57;9.50;;;22.50;99.90;;;;;;5070690;28;20128;-58
2022/10/09 12:46:45;;;;;;;13.35;10.30;;;22.50;99.90;;;;;;5036873;28;20044;-58
2022/10/09 12:49:20;;;;;;;14.23;10.05;;;22.40;99.90;;;;;;5068216;28;20505;-58
2022/10/09 12:51:52;;;;;;;12.85;9.90;;;22.30;99.90;;;;;;5071344;28;20028;-58
2022/10/09 12:54:18;;;;;;;12.88;10.40;;;22.30;99.90;;;;;;5073332;28;20487;-58
2022/10/09 12:56:46;;;;;;;14.30;9.50;;;22.10;99.90;;;;;;5074042;28;20055;-58
2022/10/09 12:59:12;;;;;;;12.85;10.00;;;22.10;99.90;;;;;;5071675;28;20419;-58
2022/10/09 13:01:41;;;;;;;12.30;10.30;;;22.20;99.90;;;;;;5063925;28;20048;-58
2022/10/09 13:04:22;;;;;;;13.07;10.70;;;22.20;99.90;;;;;;5070440;28;20082;-58
2022/10/09 13:06:50;;;;;;;13.38;9.80;;;22.30;99.90;;;;;;5069824;28;20470;-58
2022/10/09 13:09:24;;;;;;;14.07;11.82;;;22.30;99.90;;;;;;5070066;28;20040;-59
2022/10/09 13:11:54;;;;;;;14.23;10.90;;;22.30;99.90;;;;;;5070520;28;20111;-58
2022/10/09 13:14:40;;;;;;;14.90;11.00;;;22.10;99.90;;;;;;5071727;28;20103;-58
2022/10/09 13:17:19;;;;;;;15.40;11.05;;;22.30;99.90;;;;;;5069377;28;20158;-54
2022/10/09 13:19:51;;;;;;;12.93;10.50;;;22.20;99.90;;;;;;5068181;28;20099;-58
2022/10/09 13:22:18;;;;;;;;;;;22.20;99.90;;;;;;5071621;28;20162;-58
2022/10/09 13:24:44;;;;;;;15.15;10.98;;;22.10;99.90;;;;;;5070809;28;19915;-57
2022/10/09 13:27:13;;;;;;;11.82;10.35;;;22.30;99.90;;;;;;5047166;28;20041;-57
2022/10/09 13:29:40;;;;;;;11.98;9.57;;;22.20;99.90;;;;;;5070796;28;20488;-56
2022/10/09 13:32:09;;;;;;;11.27;8.48;;;22.40;99.90;;;;;;5070925;28;20149;-54
2022/10/09 13:34:35;;;;;;;10.45;8.95;;;22.20;99.90;;;;;;5053869;28;20102;-55
2022/10/09 13:37:01;;;;;;;9.95;8.70;;;;;;;;;;5070727;28;20036;-55
2022/10/09 13:39:26;;;;;;;11.13;8.98;;;22.30;99.90;;;;;;5052855;28;20091;-54
2022/10/09 13:41:56;;;;;;;9.90;8.35;;;22.40;99.90;;;;;;5065278;28;20060;-55
2022/10/09 13:44:21;;;;;;;12.00;9.23;;;22.40;99.90;;;;;;5071915;28;20032;-56
2022/10/09 13:46:47;;;;;;;13.88;10.50;;;22.40;99.90;;;;;;5071723;28;20093;-56
2022/10/09 13:49:13;;;;;;;14.13;9.77;;;22.50;99.90;;;;;;5071596;28;20016;-54
2022/10/09 13:51:39;;;;;;;12.00;10.80;;;22.50;99.90;;;;;;5036146;28;20617;-58
2022/10/09 13:54:04;;;;;;;12.75;11.15;;;22.60;99.90;;;;;;5070276;28;20021;-54
2022/10/09 13:56:30;;;;;;;11.32;10.23;;;22.50;99.90;;;;;;5069658;28;20036;-55
2022/10/09 13:58:56;;;;;;;11.23;9.88;;;22.40;99.90;;;;;;5071474;28;20455;-55
2022/10/09 14:01:22;;;;;;;12.15;10.57;;;22.40;99.90;;;;;;5068237;28;20075;-59
2022/10/09 14:03:48;;;;;;;20.08;10.60;;;22.50;99.90;;;;;;5070521;28;20038;-59
2022/10/09 14:06:14;;;;;;;14.00;11.70;;;22.50;99.90;;;;;;5071754;28;20048;-57
2022/10/09 14:08:40;;;;;;;17.25;12.25;;;;;;;;;;5070452;28;20124;-58
2022/10/09 14:11:06;;;;;;;15.45;11.88;;;;;;;;;;5065238;28;20078;-55
2022/10/09 14:13:32;;;;;;;16.05;12.88;;;;;;;;;;5064873;28;20031;-53
2022/10/09 14:15:58;;;;;;;17.15;12.20;;;22.30;99.90;;;;;;5070310;28;20028;-55
2022/10/09 14:18:24;;;;;;;19.65;13.02;;;;;;;;;;5069207;28;20041;-59
2022/10/09 14:20:50;;;;;;;14.10;12.25;;;;;;;;;;5068025;28;20052;-57
2022/10/09 14:23:16;;;;;;;19.17;13.85;;;;;;;;;;5071191;28;20032;-57
2022/10/09 14:25:42;;;;;;;17.23;15.27;;;;;;;;;;5067001;28;20071;-58
2022/10/09 14:28:08;;;;;;;25.85;17.10;;;;;;;;;;5068072;28;20052;-58
2022/10/09 14:30:34;;;;;;;16.42;14.80;;;;;;;;;;5069942;28;20032;-57
2022/10/09 14:33:00;;;;;;;26.70;17.35;;;22.40;99.90;;;;;;5068169;28;20037;-57
2022/10/09 14:35:25;;;;;;;22.83;16.55;;;22.40;99.90;;;;;;5069906;28;20098;-57